sensor_id;sensor_type;location;lat;lon;timestamp;temperature;humidity
37594;DHT22;23441;50.856;6.076;2023-03-23T00:00:59;11.80;99.90
37594;DHT22;23441;50.856;6.076;2023-03-23T00:03:28;11.80;99.90
37594;DHT22;23441;50.856;6.076;2023-03-23T00:05:55;11.80;99.90
37594;DHT22;23441;50.856;6.076;2023-03-23T00:08:25;11.80;99.90
37594;DHT22;23441;50.856;6.076;2023-03-23T00:10:51;11.80;99.90
37594;DHT22;23441;50.856;6.076;2023-03-23T00:13:27;11.80;99.90
37594;DHT22;23441;50.856;6.076;2023-03-23T00:15:53;11.80;99.90
37594;DHT22;23441;50.856;6.076;2023-03-23T00:18:19;11.80;99.90
37594;DHT22;23441;50.856;6.076;2023-03-23T00:20:50;11.80;99.90
37594;DHT22;23441;50.856;6.076;2023-03-23T00:23:21;11.80;99.90
37594;DHT22;23441;50.856;6.076;2023-03-23T00:25:52;11.70;99.90
37594;DHT22;23441;50.856;6.076;2023-03-23T00:28:19;11.70;99.90
37594;DHT22;23441;50.856;6.076;2023-03-23T00:31:01;11.60;99.90
37594;DHT22;23441;50.856;6.076;2023-03-23T00:33:32;11.60;99.90
37594;DHT22;23441;50.856;6.076;2023-03-23T00:36:04;11.60;99.90
37594;DHT22;23441;50.856;6.076;2023-03-23T00:38:30;11.60;99.90
37594;DHT22;23441;50.856;6.076;2023-03-23T00:40:56;11.60;99.90
37594;DHT22;23441;50.856;6.076;2023-03-23T00:43:24;11.70;99.90
37594;DHT22;23441;50.856;6.076;2023-03-23T00:45:57;11.60;99.90
37594;DHT22;23441;50.856;6.076;2023-03-23T00:48:27;11.70;99.90
37594;DHT22;23441;50.856;6.076;2023-03-23T00:50:53;11.60;99.90
37594;DHT22;23441;50.856;6.076;2023-03-23T00:53:19;11.60;99.90
37594;DHT22;23441;50.856;6.076;2023-03-23T00:55:46;11.60;99.90
37594;DHT22;23441;50.856;6.076;2023-03-23T00:58:13;11.60;99.90
37594;DHT22;23441;50.856;6.076;2023-03-23T01:00:39;11.60;99.90
37594;DHT22;23441;50.856;6.076;2023-03-23T01:03:06;11.50;99.90
37594;DHT22;23441;50.856;6.076;2023-03-23T01:05:35;11.50;99.90
37594;DHT22;23441;50.856;6.076;2023-03-23T01:08:03;11.50;99.90
37594;DHT22;23441;50.856;6.076;2023-03-23T01:10:29;11.40;99.90
37594;DHT22;23441;50.856;6.076;2023-03-23T01:12:58;11.30;99.90
37594;DHT22;23441;50.856;6.076;2023-03-23T01:15:26;11.30;99.90
37594;DHT22;23441;50.856;6.076;2023-03-23T01:17:52;11.20;99.90
37594;DHT22;23441;50.856;6.076;2023-03-23T01:20:18;11.10;99.90
37594;DHT22;23441;50.856;6.076;2023-03-23T01:22:43;11.10;99.90
37594;DHT22;23441;50.856;6.076;2023-03-23T01:25:11;11.10;99.90
37594;DHT22;23441;50.856;6.076;2023-03-23T01:27:37;11.10;99.90
37594;DHT22;23441;50.856;6.076;2023-03-23T01:30:04;11.00;99.90
37594;DHT22;23441;50.856;6.076;2023-03-23T01:32:31;11.00;99.90
37594;DHT22;23441;50.856;6.076;2023-03-23T01:34:57;11.10;99.90
37594;DHT22;23441;50.856;6.076;2023-03-23T01:37:22;11.10;99.90
37594;DHT22;23441;50.856;6.076;2023-03-23T01:39:55;11.00;99.90
37594;DHT22;23441;50.856;6.076;2023-03-23T01:42:25;11.00;99.90
37594;DHT22;23441;50.856;6.076;2023-03-23T01:47:20;11.00;99.90
37594;DHT22;23441;50.856;6.076;2023-03-23T01:49:49;11.20;99.90
37594;DHT22;23441;50.856;6.076;2023-03-23T01:52:26;11.20;99.90
37594;DHT22;23441;50.856;6.076;2023-03-23T01:54:55;11.20;99.90
37594;DHT22;23441;50.856;6.076;2023-03-23T01:57:24;11.20;99.90
37594;DHT22;23441;50.856;6.076;2023-03-23T01:59:53;11.20;99.90
37594;DHT22;23441;50.856;6.076;2023-03-23T02:02:21;11.20;99.90
37594;DHT22;23441;50.856;6.076;2023-03-23T02:04:47;11.20;99.90
37594;DHT22;23441;50.856;6.076;2023-03-23T02:07:15;11.20;99.90
37594;DHT22;23441;50.856;6.076;2023-03-23T02:09:42;11.20;99.90
37594;DHT22;23441;50.856;6.076;2023-03-23T02:12:08;11.20;99.90
37594;DHT22;23441;50.856;6.076;2023-03-23T02:14:34;11.20;99.90
37594;DHT22;23441;50.856;6.076;2023-03-23T02:17:12;11.20;99.90
37594;DHT22;23441;50.856;6.076;2023-03-23T02:20:07;11.20;99.90
37594;DHT22;23441;50.856;6.076;2023-03-23T02:25:43;11.30;99.90
37594;DHT22;23441;50.856;6.076;2023-03-23T02:30:49;11.40;99.90
37594;DHT22;23441;50.856;6.076;2023-03-23T02:33:36;11.30;99.90
37594;DHT22;23441;50.856;6.076;2023-03-23T02:41:19;11.50;99.90
37594;DHT22;23441;50.856;6.076;2023-03-23T02:43:47;11.50;99.90
37594;DHT22;23441;50.856;6.076;2023-03-23T02:46:14;11.40;99.90
37594;DHT22;23441;50.856;6.076;2023-03-23T02:48:42;11.40;99.90
37594;DHT22;23441;50.856;6.076;2023-03-23T02:51:09;11.40;99.90
37594;DHT22;23441;50.856;6.076;2023-03-23T02:53:38;11.40;99.90
37594;DHT22;23441;50.856;6.076;2023-03-23T02:56:06;11.40;99.90
37594;DHT22;23441;50.856;6.076;2023-03-23T02:58:35;11.40;99.90
37594;DHT22;23441;50.856;6.076;2023-03-23T03:01:59;11.40;99.90
37594;DHT22;23441;50.856;6.076;2023-03-23T03:04:13;11.40;99.90
37594;DHT22;23441;50.856;6.076;2023-03-23T03:12:06;11.50;99.90
37594;DHT22;23441;50.856;6.076;2023-03-23T03:14:49;11.40;99.90
37594;DHT22;23441;50.856;6.076;2023-03-23T03:17:26;11.40;99.90
37594;DHT22;23441;50.856;6.076;2023-03-23T03:20:00;11.40;99.90
37594;DHT22;23441;50.856;6.076;2023-03-23T03:22:33;11.40;99.90
37594;DHT22;23441;50.856;6.076;2023-03-23T03:25:00;11.40;99.90
37594;DHT22;23441;50.856;6.076;2023-03-23T03:27:26;11.40;99.90
37594;DHT22;23441;50.856;6.076;2023-03-23T03:29:55;11.40;99.90
37594;DHT22;23441;50.856;6.076;2023-03-23T03:32:25;11.40;99.90
37594;DHT22;23441;50.856;6.076;2023-03-23T03:34:58;11.40;99.90
37594;DHT22;23441;50.856;6.076;2023-03-23T03:37:24;11.40;99.90
37594;DHT22;23441;50.856;6.076;2023-03-23T03:39:49;11.40;99.90
37594;DHT22;23441;50.856;6.076;2023-03-23T03:42:16;11.40;99.90
37594;DHT22;23441;50.856;6.076;2023-03-23T03:44:42;11.40;99.90
37594;DHT22;23441;50.856;6.076;2023-03-23T03:47:08;11.40;99.90
37594;DHT22;23441;50.856;6.076;2023-03-23T03:49:34;11.40;99.90
37594;DHT22;23441;50.856;6.076;2023-03-23T03:52:00;11.40;99.90
37594;DHT22;23441;50.856;6.076;2023-03-23T03:54:26;11.40;99.90
37594;DHT22;23441;50.856;6.076;2023-03-23T03:56:51;11.40;99.90
37594;DHT22;23441;50.856;6.076;2023-03-23T03:59:23;11.40;99.90
37594;DHT22;23441;50.856;6.076;2023-03-23T04:01:48;11.40;99.90
37594;DHT22;23441;50.856;6.076;2023-03-23T04:04:19;11.40;99.90
37594;DHT22;23441;50.856;6.076;2023-03-23T04:06:45;11.30;99.90
37594;DHT22;23441;50.856;6.076;2023-03-23T04:09:10;11.30;99.90
37594;DHT22;23441;50.856;6.076;2023-03-23T04:11:37;11.40;99.90
37594;DHT22;23441;50.856;6.076;2023-03-23T04:14:02;11.30;99.90
37594;DHT22;23441;50.856;6.076;2023-03-23T04:16:28;11.40;99.90
37594;DHT22;23441;50.856;6.076;2023-03-23T04:18:55;11.30;99.90
37594;DHT22;23441;50.856;6.076;2023-03-23T04:21:21;11.30;99.90
37594;DHT22;23441;50.856;6.076;2023-03-23T04:23:47;11.30;99.90
37594;DHT22;23441;50.856;6.076;2023-03-23T04:26:13;11.30;99.90
37594;DHT22;23441;50.856;6.076;2023-03-23T04:28:39;11.30;99.90
37594;DHT22;23441;50.856;6.076;2023-03-23T04:31:06;11.30;99.90
37594;DHT22;23441;50.856;6.076;2023-03-23T04:33:32;11.30;99.90
37594;DHT22;23441;50.856;6.076;2023-03-23T04:36:00;11.30;99.90
37594;DHT22;23441;50.856;6.076;2023-03-23T04:38:27;11.20;99.90
37594;DHT22;23441;50.856;6.076;2023-03-23T04:40:53;11.20;99.90
37594;DHT22;23441;50.856;6.076;2023-03-23T04:43:20;11.20;99.90
37594;DHT22;23441;50.856;6.076;2023-03-23T04:45:57;11.30;99.90
37594;DHT22;23441;50.856;6.076;2023-03-23T04:48:27;11.20;99.90
37594;DHT22;23441;50.856;6.076;2023-03-23T04:50:54;11.20;99.90
37594;DHT22;23441;50.856;6.076;2023-03-23T04:53:20;11.20;99.90
37594;DHT22;23441;50.856;6.076;2023-03-23T04:55:46;11.10;99.90
37594;DHT22;23441;50.856;6.076;2023-03-23T04:58:13;11.10;99.90
37594;DHT22;23441;50.856;6.076;2023-03-23T05:00:40;11.10;99.90
37594;DHT22;23441;50.856;6.076;2023-03-23T05:03:09;11.10;99.90
37594;DHT22;23441;50.856;6.076;2023-03-23T05:05:35;11.10;99.90
37594;DHT22;23441;50.856;6.076;2023-03-23T05:08:00;11.10;99.90
37594;DHT22;23441;50.856;6.076;2023-03-23T05:10:26;11.00;99.90
37594;DHT22;23441;50.856;6.076;2023-03-23T05:12:53;11.00;99.90
37594;DHT22;23441;50.856;6.076;2023-03-23T05:15:19;11.00;99.90
37594;DHT22;23441;50.856;6.076;2023-03-23T05:17:45;11.00;99.90
37594;DHT22;23441;50.856;6.076;2023-03-23T05:20:12;10.90;99.90
37594;DHT22;23441;50.856;6.076;2023-03-23T05:22:41;10.90;99.90
37594;DHT22;23441;50.856;6.076;2023-03-23T05:25:07;10.90;99.90
37594;DHT22;23441;50.856;6.076;2023-03-23T05:27:37;10.90;99.90
37594;DHT22;23441;50.856;6.076;2023-03-23T05:30:04;11.00;99.90
37594;DHT22;23441;50.856;6.076;2023-03-23T05:32:30;10.90;99.90
37594;DHT22;23441;50.856;6.076;2023-03-23T05:34:57;10.90;99.90
37594;DHT22;23441;50.856;6.076;2023-03-23T05:37:24;10.90;99.90
37594;DHT22;23441;50.856;6.076;2023-03-23T05:39:49;10.90;99.90
37594;DHT22;23441;50.856;6.076;2023-03-23T05:42:22;10.90;99.90
37594;DHT22;23441;50.856;6.076;2023-03-23T05:44:49;10.90;99.90
37594;DHT22;23441;50.856;6.076;2023-03-23T05:47:15;10.80;99.90
37594;DHT22;23441;50.856;6.076;2023-03-23T05:49:41;10.90;99.90
37594;DHT22;23441;50.856;6.076;2023-03-23T05:52:07;10.90;99.90
37594;DHT22;23441;50.856;6.076;2023-03-23T05:54:32;11.00;99.90
37594;DHT22;23441;50.856;6.076;2023-03-23T05:56:59;11.00;99.90
37594;DHT22;23441;50.856;6.076;2023-03-23T05:59:25;11.00;99.90
37594;DHT22;23441;50.856;6.076;2023-03-23T06:01:51;11.10;99.90
37594;DHT22;23441;50.856;6.076;2023-03-23T06:04:19;11.00;99.90
37594;DHT22;23441;50.856;6.076;2023-03-23T06:06:45;11.10;99.90
37594;DHT22;23441;50.856;6.076;2023-03-23T06:09:11;11.10;99.90
37594;DHT22;23441;50.856;6.076;2023-03-23T06:11:37;11.10;99.90
37594;DHT22;23441;50.856;6.076;2023-03-23T06:14:02;11.10;99.90
37594;DHT22;23441;50.856;6.076;2023-03-23T06:16:28;11.10;99.90
37594;DHT22;23441;50.856;6.076;2023-03-23T06:18:54;11.10;99.90
37594;DHT22;23441;50.856;6.076;2023-03-23T06:21:20;11.10;99.90
37594;DHT22;23441;50.856;6.076;2023-03-23T06:23:47;11.20;99.90
37594;DHT22;23441;50.856;6.076;2023-03-23T06:26:14;11.20;99.90
37594;DHT22;23441;50.856;6.076;2023-03-23T06:28:42;11.20;99.90
37594;DHT22;23441;50.856;6.076;2023-03-23T06:31:08;11.20;99.90
37594;DHT22;23441;50.856;6.076;2023-03-23T06:33:35;11.30;99.90
37594;DHT22;23441;50.856;6.076;2023-03-23T06:36:01;11.30;99.90
37594;DHT22;23441;50.856;6.076;2023-03-23T06:38:27;11.40;99.90
37594;DHT22;23441;50.856;6.076;2023-03-23T06:40:53;11.40;99.90
37594;DHT22;23441;50.856;6.076;2023-03-23T06:43:19;11.40;99.90
37594;DHT22;23441;50.856;6.076;2023-03-23T06:45:45;11.40;99.90
37594;DHT22;23441;50.856;6.076;2023-03-23T06:48:11;11.40;99.90
37594;DHT22;23441;50.856;6.076;2023-03-23T06:50:37;11.40;99.90
37594;DHT22;23441;50.856;6.076;2023-03-23T06:53:03;11.40;99.90
37594;DHT22;23441;50.856;6.076;2023-03-23T06:55:28;11.40;99.90
37594;DHT22;23441;50.856;6.076;2023-03-23T06:57:54;11.50;99.90
37594;DHT22;23441;50.856;6.076;2023-03-23T07:00:20;11.50;99.90
37594;DHT22;23441;50.856;6.076;2023-03-23T07:02:46;11.50;99.90
37594;DHT22;23441;50.856;6.076;2023-03-23T07:05:12;11.50;99.90
37594;DHT22;23441;50.856;6.076;2023-03-23T07:07:39;11.50;99.90
37594;DHT22;23441;50.856;6.076;2023-03-23T07:10:07;11.60;99.90
37594;DHT22;23441;50.856;6.076;2023-03-23T07:12:34;11.60;99.90
37594;DHT22;23441;50.856;6.076;2023-03-23T07:15:02;11.70;99.90
37594;DHT22;23441;50.856;6.076;2023-03-23T07:17:28;11.70;99.90
37594;DHT22;23441;50.856;6.076;2023-03-23T07:19:53;11.70;99.90
37594;DHT22;23441;50.856;6.076;2023-03-23T07:22:19;11.80;99.90
37594;DHT22;23441;50.856;6.076;2023-03-23T07:24:45;11.70;99.90
37594;DHT22;23441;50.856;6.076;2023-03-23T07:27:11;11.80;99.90
37594;DHT22;23441;50.856;6.076;2023-03-23T07:29:37;11.80;99.90
37594;DHT22;23441;50.856;6.076;2023-03-23T07:32:05;11.80;99.90
37594;DHT22;23441;50.856;6.076;2023-03-23T07:34:32;11.90;99.90
37594;DHT22;23441;50.856;6.076;2023-03-23T07:36:58;11.90;99.90
37594;DHT22;23441;50.856;6.076;2023-03-23T07:39:24;12.00;99.90
37594;DHT22;23441;50.856;6.076;2023-03-23T07:41:50;12.00;99.90
37594;DHT22;23441;50.856;6.076;2023-03-23T07:44:16;12.00;99.90
37594;DHT22;23441;50.856;6.076;2023-03-23T07:46:42;12.00;99.90
37594;DHT22;23441;50.856;6.076;2023-03-23T07:49:09;12.00;99.90
37594;DHT22;23441;50.856;6.076;2023-03-23T07:51:36;12.10;99.90
37594;DHT22;23441;50.856;6.076;2023-03-23T07:54:04;12.10;99.90
37594;DHT22;23441;50.856;6.076;2023-03-23T07:56:31;12.20;99.90
37594;DHT22;23441;50.856;6.076;2023-03-23T07:58:56;12.20;99.90
37594;DHT22;23441;50.856;6.076;2023-03-23T08:01:22;12.20;99.90
37594;DHT22;23441;50.856;6.076;2023-03-23T08:03:49;12.20;99.90
37594;DHT22;23441;50.856;6.076;2023-03-23T08:06:15;12.30;99.90
37594;DHT22;23441;50.856;6.076;2023-03-23T08:08:41;12.30;99.90
37594;DHT22;23441;50.856;6.076;2023-03-23T08:11:07;12.40;99.90
37594;DHT22;23441;50.856;6.076;2023-03-23T08:13:33;12.40;99.90
37594;DHT22;23441;50.856;6.076;2023-03-23T08:16:00;12.50;99.90
37594;DHT22;23441;50.856;6.076;2023-03-23T08:18:29;12.50;99.90
37594;DHT22;23441;50.856;6.076;2023-03-23T08:20:55;12.60;99.90
37594;DHT22;23441;50.856;6.076;2023-03-23T08:23:21;12.60;99.90
37594;DHT22;23441;50.856;6.076;2023-03-23T08:25:48;12.70;99.90
37594;DHT22;23441;50.856;6.076;2023-03-23T08:28:14;12.70;99.90
37594;DHT22;23441;50.856;6.076;2023-03-23T08:30:40;12.70;99.90
37594;DHT22;23441;50.856;6.076;2023-03-23T08:33:07;12.70;99.90
37594;DHT22;23441;50.856;6.076;2023-03-23T08:35:34;12.70;99.90
37594;DHT22;23441;50.856;6.076;2023-03-23T08:37:59;12.70;99.90
37594;DHT22;23441;50.856;6.076;2023-03-23T08:40:25;12.80;99.90
37594;DHT22;23441;50.856;6.076;2023-03-23T08:42:52;12.90;99.90
37594;DHT22;23441;50.856;6.076;2023-03-23T08:45:22;13.00;99.90
37594;DHT22;23441;50.856;6.076;2023-03-23T08:47:48;13.00;99.90
37594;DHT22;23441;50.856;6.076;2023-03-23T08:50:20;13.00;99.90
37594;DHT22;23441;50.856;6.076;2023-03-23T08:52:47;12.90;99.90
37594;DHT22;23441;50.856;6.076;2023-03-23T08:55:13;12.80;99.90
37594;DHT22;23441;50.856;6.076;2023-03-23T08:57:40;12.60;99.90
37594;DHT22;23441;50.856;6.076;2023-03-23T09:00:10;12.50;99.90
37594;DHT22;23441;50.856;6.076;2023-03-23T09:02:51;12.50;99.90
37594;DHT22;23441;50.856;6.076;2023-03-23T09:05:19;12.50;99.90
37594;DHT22;23441;50.856;6.076;2023-03-23T09:07:48;12.40;99.90
37594;DHT22;23441;50.856;6.076;2023-03-23T09:10:14;12.40;99.90
37594;DHT22;23441;50.856;6.076;2023-03-23T09:12:42;12.40;99.90
37594;DHT22;23441;50.856;6.076;2023-03-23T09:15:10;12.40;99.90
37594;DHT22;23441;50.856;6.076;2023-03-23T09:17:38;12.50;99.90
37594;DHT22;23441;50.856;6.076;2023-03-23T09:20:05;12.60;99.90
37594;DHT22;23441;50.856;6.076;2023-03-23T09:22:36;12.70;99.90
37594;DHT22;23441;50.856;6.076;2023-03-23T09:25:02;12.90;99.90
37594;DHT22;23441;50.856;6.076;2023-03-23T09:27:28;12.90;99.90
37594;DHT22;23441;50.856;6.076;2023-03-23T09:29:54;12.80;99.90
37594;DHT22;23441;50.856;6.076;2023-03-23T09:32:21;12.80;99.90
37594;DHT22;23441;50.856;6.076;2023-03-23T09:34:48;12.80;99.90
37594;DHT22;23441;50.856;6.076;2023-03-23T09:37:13;13.00;99.90
37594;DHT22;23441;50.856;6.076;2023-03-23T09:39:40;13.10;99.90
37594;DHT22;23441;50.856;6.076;2023-03-23T09:42:24;13.20;99.90
37594;DHT22;23441;50.856;6.076;2023-03-23T09:45:03;13.30;99.90
37594;DHT22;23441;50.856;6.076;2023-03-23T09:50:21;13.30;99.90
37594;DHT22;23441;50.856;6.076;2023-03-23T09:53:02;13.30;99.90
37594;DHT22;23441;50.856;6.076;2023-03-23T09:55:30;13.30;99.90
37594;DHT22;23441;50.856;6.076;2023-03-23T10:00:37;13.20;99.90
37594;DHT22;23441;50.856;6.076;2023-03-23T10:03:12;13.20;99.90
37594;DHT22;23441;50.856;6.076;2023-03-23T10:05:42;13.20;99.90
37594;DHT22;23441;50.856;6.076;2023-03-23T10:08:24;13.00;99.90
37594;DHT22;23441;50.856;6.076;2023-03-23T10:11:10;12.90;99.90
37594;DHT22;23441;50.856;6.076;2023-03-23T10:16:14;13.20;99.90
37594;DHT22;23441;50.856;6.076;2023-03-23T10:18:52;13.60;99.90
37594;DHT22;23441;50.856;6.076;2023-03-23T10:21:23;13.80;99.90
37594;DHT22;23441;50.856;6.076;2023-03-23T10:24:14;14.00;99.90
37594;DHT22;23441;50.856;6.076;2023-03-23T10:27:18;14.10;99.90
37594;DHT22;23441;50.856;6.076;2023-03-23T10:29:41;14.40;99.90
37594;DHT22;23441;50.856;6.076;2023-03-23T10:32:15;14.30;99.90
37594;DHT22;23441;50.856;6.076;2023-03-23T10:34:50;14.20;99.90
37594;DHT22;23441;50.856;6.076;2023-03-23T10:37:25;13.90;99.90
37594;DHT22;23441;50.856;6.076;2023-03-23T10:39:59;13.50;99.90
37594;DHT22;23441;50.856;6.076;2023-03-23T10:42:32;13.30;99.90
37594;DHT22;23441;50.856;6.076;2023-03-23T10:45:19;13.20;99.90
37594;DHT22;23441;50.856;6.076;2023-03-23T10:47:49;13.10;99.90
37594;DHT22;23441;50.856;6.076;2023-03-23T10:50:22;12.90;99.90
37594;DHT22;23441;50.856;6.076;2023-03-23T10:52:50;12.90;99.90
37594;DHT22;23441;50.856;6.076;2023-03-23T10:55:22;12.90;99.90
37594;DHT22;23441;50.856;6.076;2023-03-23T10:58:12;12.80;99.90
37594;DHT22;23441;50.856;6.076;2023-03-23T11:00:44;12.90;99.90
37594;DHT22;23441;50.856;6.076;2023-03-23T11:05:52;12.90;99.90
37594;DHT22;23441;50.856;6.076;2023-03-23T11:08:20;12.90;99.90
37594;DHT22;23441;50.856;6.076;2023-03-23T11:10:55;12.80;99.90
37594;DHT22;23441;50.856;6.076;2023-03-23T11:13:27;12.80;99.90
37594;DHT22;23441;50.856;6.076;2023-03-23T11:15:54;12.80;99.90
37594;DHT22;23441;50.856;6.076;2023-03-23T11:18:26;12.90;99.90
37594;DHT22;23441;50.856;6.076;2023-03-23T11:20:57;12.90;99.90
37594;DHT22;23441;50.856;6.076;2023-03-23T11:23:29;13.00;99.90
37594;DHT22;23441;50.856;6.076;2023-03-23T11:26:08;13.00;99.90
37594;DHT22;23441;50.856;6.076;2023-03-23T11:28:46;13.00;99.90
37594;DHT22;23441;50.856;6.076;2023-03-23T11:31:16;13.00;99.90
37594;DHT22;23441;50.856;6.076;2023-03-23T11:33:55;12.90;99.90
37594;DHT22;23441;50.856;6.076;2023-03-23T11:36:39;13.00;99.90
37594;DHT22;23441;50.856;6.076;2023-03-23T11:39:48;13.00;99.90
37594;DHT22;23441;50.856;6.076;2023-03-23T11:42:25;13.20;99.90
37594;DHT22;23441;50.856;6.076;2023-03-23T11:44:54;13.60;99.90
37594;DHT22;23441;50.856;6.076;2023-03-23T11:47:35;14.00;99.90
37594;DHT22;23441;50.856;6.076;2023-03-23T11:50:16;14.20;99.90
37594;DHT22;23441;50.856;6.076;2023-03-23T11:53:13;14.20;99.90
37594;DHT22;23441;50.856;6.076;2023-03-23T11:58:15;14.20;99.90
37594;DHT22;23441;50.856;6.076;2023-03-23T12:00:51;13.90;99.90
37594;DHT22;23441;50.856;6.076;2023-03-23T12:03:40;13.80;99.90
37594;DHT22;23441;50.856;6.076;2023-03-23T12:06:10;13.70;99.90
37594;DHT22;23441;50.856;6.076;2023-03-23T12:08:59;13.70;99.90
37594;DHT22;23441;50.856;6.076;2023-03-23T12:17:29;14.00;99.90
37594;DHT22;23441;50.856;6.076;2023-03-23T12:28:02;14.80;99.90
37594;DHT22;23441;50.856;6.076;2023-03-23T12:33:23;14.50;99.90
37594;DHT22;23441;50.856;6.076;2023-03-23T12:44:46;13.80;99.90
37594;DHT22;23441;50.856;6.076;2023-03-23T12:49:55;13.50;99.90
37594;DHT22;23441;50.856;6.076;2023-03-23T12:52:27;13.40;99.90
37594;DHT22;23441;50.856;6.076;2023-03-23T12:57:40;13.30;99.90
37594;DHT22;23441;50.856;6.076;2023-03-23T13:02:48;13.00;99.90
37594;DHT22;23441;50.856;6.076;2023-03-23T13:08:27;12.60;99.90
37594;DHT22;23441;50.856;6.076;2023-03-23T13:11:01;12.50;99.90
37594;DHT22;23441;50.856;6.076;2023-03-23T13:21:41;12.60;99.90
37594;DHT22;23441;50.856;6.076;2023-03-23T13:24:13;12.70;99.90
37594;DHT22;23441;50.856;6.076;2023-03-23T13:26:41;12.70;99.90
37594;DHT22;23441;50.856;6.076;2023-03-23T13:29:17;12.70;99.90
37594;DHT22;23441;50.856;6.076;2023-03-23T13:31:49;12.80;99.90
37594;DHT22;23441;50.856;6.076;2023-03-23T13:34:26;12.70;99.90
37594;DHT22;23441;50.856;6.076;2023-03-23T13:37:02;12.70;99.90
37594;DHT22;23441;50.856;6.076;2023-03-23T13:39:36;12.80;99.90
37594;DHT22;23441;50.856;6.076;2023-03-23T13:42:18;12.90;99.90
37594;DHT22;23441;50.856;6.076;2023-03-23T13:47:27;12.80;99.90
37594;DHT22;23441;50.856;6.076;2023-03-23T13:50:10;12.70;99.90
37594;DHT22;23441;50.856;6.076;2023-03-23T14:10:59;12.60;99.90
37594;DHT22;23441;50.856;6.076;2023-03-23T14:18:48;12.70;99.90
37594;DHT22;23441;50.856;6.076;2023-03-23T14:24:43;12.80;99.90
37594;DHT22;23441;50.856;6.076;2023-03-23T14:27:17;12.90;99.90
37594;DHT22;23441;50.856;6.076;2023-03-23T14:29:44;12.90;99.90
37594;DHT22;23441;50.856;6.076;2023-03-23T14:32:16;12.90;99.90
37594;DHT22;23441;50.856;6.076;2023-03-23T14:34:42;13.00;99.90
37594;DHT22;23441;50.856;6.076;2023-03-23T14:37:15;12.90;99.90
37594;DHT22;23441;50.856;6.076;2023-03-23T14:39:45;13.00;99.90
37594;DHT22;23441;50.856;6.076;2023-03-23T14:42:14;13.20;99.90
37594;DHT22;23441;50.856;6.076;2023-03-23T14:44:43;13.30;99.90
37594;DHT22;23441;50.856;6.076;2023-03-23T14:47:36;13.40;99.90
37594;DHT22;23441;50.856;6.076;2023-03-23T14:50:05;13.50;99.90
37594;DHT22;23441;50.856;6.076;2023-03-23T14:52:37;13.70;99.90
37594;DHT22;23441;50.856;6.076;2023-03-23T14:55:21;13.90;99.90
37594;DHT22;23441;50.856;6.076;2023-03-23T14:57:48;14.00;99.90
37594;DHT22;23441;50.856;6.076;2023-03-23T15:00:36;14.10;99.90
37594;DHT22;23441;50.856;6.076;2023-03-23T15:03:04;14.10;99.90
37594;DHT22;23441;50.856;6.076;2023-03-23T15:05:33;14.00;99.90
37594;DHT22;23441;50.856;6.076;2023-03-23T15:08:05;13.90;99.90
37594;DHT22;23441;50.856;6.076;2023-03-23T15:10:31;13.90;99.90
37594;DHT22;23441;50.856;6.076;2023-03-23T15:12:56;14.10;99.90
37594;DHT22;23441;50.856;6.076;2023-03-23T15:15:33;14.10;99.90
37594;DHT22;23441;50.856;6.076;2023-03-23T15:18:01;14.10;99.90
37594;DHT22;23441;50.856;6.076;2023-03-23T15:20:45;14.10;99.90
37594;DHT22;23441;50.856;6.076;2023-03-23T15:23:16;14.30;99.90
37594;DHT22;23441;50.856;6.076;2023-03-23T15:25:51;14.20;99.90
37594;DHT22;23441;50.856;6.076;2023-03-23T15:28:19;14.20;99.90
37594;DHT22;23441;50.856;6.076;2023-03-23T15:30:52;14.20;99.90
37594;DHT22;23441;50.856;6.076;2023-03-23T15:33:19;14.10;99.90
37594;DHT22;23441;50.856;6.076;2023-03-23T15:35:52;14.10;99.90
37594;DHT22;23441;50.856;6.076;2023-03-23T15:38:23;14.10;99.90
37594;DHT22;23441;50.856;6.076;2023-03-23T15:40:54;14.10;99.90
37594;DHT22;23441;50.856;6.076;2023-03-23T15:43:50;14.10;99.90
37594;DHT22;23441;50.856;6.076;2023-03-23T15:46:20;14.10;99.90
37594;DHT22;23441;50.856;6.076;2023-03-23T15:49:06;14.10;99.90
37594;DHT22;23441;50.856;6.076;2023-03-23T15:51:33;14.00;99.90
37594;DHT22;23441;50.856;6.076;2023-03-23T15:53:59;14.00;99.90
37594;DHT22;23441;50.856;6.076;2023-03-23T15:56:25;14.00;99.90
37594;DHT22;23441;50.856;6.076;2023-03-23T15:58:52;13.90;99.90
37594;DHT22;23441;50.856;6.076;2023-03-23T16:01:24;14.00;99.90
37594;DHT22;23441;50.856;6.076;2023-03-23T16:04:04;14.00;99.90
37594;DHT22;23441;50.856;6.076;2023-03-23T16:06:32;14.00;99.90
37594;DHT22;23441;50.856;6.076;2023-03-23T16:08:58;14.00;99.90
37594;DHT22;23441;50.856;6.076;2023-03-23T16:11:27;14.00;99.90
37594;DHT22;23441;50.856;6.076;2023-03-23T16:13:53;14.00;99.90
37594;DHT22;23441;50.856;6.076;2023-03-23T16:16:26;14.00;99.90
37594;DHT22;23441;50.856;6.076;2023-03-23T16:18:52;13.90;99.90
37594;DHT22;23441;50.856;6.076;2023-03-23T16:21:18;14.00;99.90
37594;DHT22;23441;50.856;6.076;2023-03-23T16:23:43;13.90;99.90
37594;DHT22;23441;50.856;6.076;2023-03-23T16:26:13;13.90;99.90
37594;DHT22;23441;50.856;6.076;2023-03-23T16:28:40;14.00;99.90
37594;DHT22;23441;50.856;6.076;2023-03-23T16:31:06;13.90;99.90
37594;DHT22;23441;50.856;6.076;2023-03-23T16:33:32;13.90;99.90
37594;DHT22;23441;50.856;6.076;2023-03-23T16:35:57;14.00;99.90
37594;DHT22;23441;50.856;6.076;2023-03-23T16:38:23;14.00;99.90
37594;DHT22;23441;50.856;6.076;2023-03-23T16:40:49;13.90;99.90
37594;DHT22;23441;50.856;6.076;2023-03-23T16:43:15;13.90;99.90
37594;DHT22;23441;50.856;6.076;2023-03-23T16:45:43;13.90;99.90
37594;DHT22;23441;50.856;6.076;2023-03-23T16:48:10;13.80;99.90
37594;DHT22;23441;50.856;6.076;2023-03-23T16:50:37;13.80;99.90
37594;DHT22;23441;50.856;6.076;2023-03-23T16:53:04;13.70;99.90
37594;DHT22;23441;50.856;6.076;2023-03-23T16:55:31;13.70;99.90
37594;DHT22;23441;50.856;6.076;2023-03-23T16:57:57;13.70;99.90
37594;DHT22;23441;50.856;6.076;2023-03-23T17:00:23;13.60;99.90
37594;DHT22;23441;50.856;6.076;2023-03-23T17:02:52;13.50;99.90
37594;DHT22;23441;50.856;6.076;2023-03-23T17:05:19;13.50;99.90
37594;DHT22;23441;50.856;6.076;2023-03-23T17:07:46;13.50;99.90
37594;DHT22;23441;50.856;6.076;2023-03-23T17:10:13;13.60;99.90
37594;DHT22;23441;50.856;6.076;2023-03-23T17:12:39;13.60;99.90
37594;DHT22;23441;50.856;6.076;2023-03-23T17:15:06;13.60;99.90
37594;DHT22;23441;50.856;6.076;2023-03-23T17:17:32;13.50;99.90
37594;DHT22;23441;50.856;6.076;2023-03-23T17:19:58;13.50;99.90
37594;DHT22;23441;50.856;6.076;2023-03-23T17:22:24;13.50;99.90
37594;DHT22;23441;50.856;6.076;2023-03-23T17:24:50;13.40;99.90
37594;DHT22;23441;50.856;6.076;2023-03-23T17:27:18;13.40;99.90
37594;DHT22;23441;50.856;6.076;2023-03-23T17:29:44;13.40;99.90
37594;DHT22;23441;50.856;6.076;2023-03-23T17:32:10;13.40;99.90